Time;durP1;ratioP1;P1;durP2;ratioP2;P2;SDS_P1;SDS_P2;PMS_P1;PMS_P2;Temp;Humidity;BMP_temperature;BMP_pressure;BME280_temperature;BME280_humidity;BME280_pressure;Samples;Min_cycle;Max_cycle;Signal;HPM_P1;HPM_P2
2022/07/27 00:01:15;;;;;;;3.10;1.43;;;;;;;;;;5093671;28;20173;-67
2022/07/27 00:03:41;;;;;;;2.57;1.40;;;;;;;;;;5092215;28;20263;-69
2022/07/27 00:06:07;;;;;;;4.77;2.13;;;;;;;;;;5092269;28;20180;-67
2022/07/27 00:08:33;;;;;;;2.20;1.60;;;;;;;;;;5093588;28;20184;-67
2022/07/27 00:10:59;;;;;;;2.47;1.47;;;;;;;;;;5094563;28;20264;-67
2022/07/27 00:13:25;;;;;;;1.37;1.23;;;;;;;;;;5094255;28;20228;-69
2022/07/27 00:15:51;;;;;;;1.63;1.50;;;;;;;;;;5093749;28;20212;-67
2022/07/27 00:18:17;;;;;;;3.57;1.57;;;;;;;;;;5093622;28;20568;-68
2022/07/27 00:20:43;;;;;;;5.47;1.50;;;;;;;;;;5093052;28;20184;-69
2022/07/27 00:23:09;;;;;;;3.10;1.93;;;;;;;;;;5092055;28;20177;-67
2022/07/27 00:25:35;;;;;;;2.43;1.50;;;;;;;;;;5092614;28;20201;-67
2022/07/27 00:28:02;;;;;;;1.93;1.30;;;;;;;;;;5093977;28;20184;-66
2022/07/27 00:30:28;;;;;;;2.30;1.50;;;;;;;;;;5091918;28;20331;-67
2022/07/27 00:32:55;;;;;;;3.33;1.63;;;;;;;;;;5093211;28;20287;-67
2022/07/27 00:35:22;;;;;;;2.60;1.40;;;;;;;;;;5093162;28;20546;-67
2022/07/27 00:37:47;;;;;;;4.70;1.57;;;;;;;;;;5093105;28;20184;-68
2022/07/27 00:40:13;;;;;;;4.90;1.83;;;;;;;;;;5092122;28;20184;-67
2022/07/27 00:42:39;;;;;;;4.20;1.43;;;;;;;;;;5093160;28;20180;-67
2022/07/27 00:45:06;;;;;;;3.13;1.50;;;;;;;;;;5093072;28;20193;-67
2022/07/27 00:47:32;;;;;;;3.50;1.67;;;;;;;;;;5093331;28;20169;-70
2022/07/27 00:49:58;;;;;;;5.00;1.80;;;;;;;;;;5093025;28;20268;-68
2022/07/27 00:52:24;;;;;;;3.03;1.50;;;;;;;;;;5093124;28;20269;-67
2022/07/27 00:54:50;;;;;;;5.37;1.70;;;;;;;;;;5093030;28;20287;-70
2022/07/27 00:57:16;;;;;;;2.50;1.33;;;;;;;;;;5091774;28;20270;-67
2022/07/27 00:59:43;;;;;;;3.73;1.40;;;;;;;;;;5093238;28;20243;-67
2022/07/27 01:02:09;;;;;;;4.90;1.40;;;;;;;;;;5092892;28;20180;-67
2022/07/27 01:04:35;;;;;;;2.20;1.50;;;;;;;;;;5092889;28;20665;-67
2022/07/27 01:07:05;;;;;;;2.63;1.60;;;;;;;;;;5092832;28;20169;-69
2022/07/27 01:12:18;;;;;;;7.90;1.87;;;;;;;;;;5093211;28;20176;-68
2022/07/27 01:14:44;;;;;;;5.53;2.10;;;;;;;;;;5092792;28;20672;-71
2022/07/27 01:17:10;;;;;;;5.83;1.40;;;;;;;;;;5091570;28;20181;-67
2022/07/27 01:19:36;;;;;;;3.03;1.67;;;;;;;;;;5092685;28;20669;-67
2022/07/27 01:22:03;;;;;;;4.73;1.77;;;;;;;;;;5092949;28;20593;-68
2022/07/27 01:24:29;;;;;;;7.47;1.70;;;;;;;;;;5092821;28;20197;-68
2022/07/27 01:26:55;;;;;;;3.57;1.50;;;;;;;;;;5091483;28;20178;-68
2022/07/27 01:29:21;;;;;;;4.87;1.73;;;;;;;;;;5093366;28;20630;-67
2022/07/27 01:31:47;;;;;;;3.43;1.83;;;;;;;;;;5093830;28;20201;-70
2022/07/27 01:34:13;;;;;;;3.60;1.70;;;;;;;;;;5096715;28;20727;-70
2022/07/27 01:36:39;;;;;;;4.17;1.63;;;;;;;;;;5098267;28;20655;-70
2022/07/27 01:39:05;;;;;;;4.33;1.90;;;;;;;;;;5098107;28;20208;-70
2022/07/27 01:41:31;;;;;;;2.00;1.73;;;;;;;;;;5096466;28;20260;-70
2022/07/27 01:43:57;;;;;;;5.17;1.87;;;;;;;;;;5096713;28;20197;-67
2022/07/27 01:46:23;;;;;;;2.17;1.57;;;;;;;;;;5095166;28;20173;-70
2022/07/27 01:48:49;;;;;;;7.47;2.43;;;;;;;;;;5096368;28;20181;-67
2022/07/27 01:51:15;;;;;;;4.70;1.80;;;;;;;;;;5096376;28;20550;-69
2022/07/27 01:53:40;;;;;;;3.47;1.63;;;;;;;;;;5096043;28;20637;-67
2022/07/27 01:56:10;;;;;;;3.60;2.03;;;;;;;;;;5096652;28;20641;-70
2022/07/27 01:58:37;;;;;;;2.70;1.63;;;;;;;;;;5095883;28;20726;-70
2022/07/27 02:01:03;;;;;;;6.03;1.90;;;;;;;;;;5096101;28;20176;-68
2022/07/27 02:03:29;;;;;;;6.17;1.67;;;;;;;;;;5096242;28;20275;-67
2022/07/27 02:05:55;;;;;;;2.23;1.60;;;;;;;;;;5096027;28;20301;-67
2022/07/27 02:08:21;;;;;;;3.40;1.70;;;;;;;;;;5094626;28;20177;-70
2022/07/27 02:13:31;;;;;;;3.63;1.77;;;;;;;;;;5095825;28;20165;-70
2022/07/27 02:15:57;;;;;;;4.00;1.60;;;;;;;;;;5095561;28;20200;-67
2022/07/27 02:18:23;;;;;;;4.10;1.80;;;;;;;;;;5095852;28;20201;-67
2022/07/27 02:20:49;;;;;;;5.30;1.73;;;;;;;;;;5095591;28;20658;-70
2022/07/27 02:23:15;;;;;;;3.63;1.80;;;;;;;;;;5095577;28;20212;-70
2022/07/27 02:25:41;;;;;;;4.40;2.10;;;;;;;;;;5095374;28;20247;-70
2022/07/27 02:28:07;;;;;;;2.83;1.40;;;;;;;;;;5094076;28;20217;-68
2022/07/27 02:30:33;;;;;;;1.60;1.50;;;;;;;;;;5094277;28;20181;-67
2022/07/27 02:32:59;;;;;;;3.80;1.53;;;;;;;;;;5094102;28;20623;-68
2022/07/27 02:35:25;;;;;;;2.77;1.70;;;;;;;;;;5095343;28;20216;-68
2022/07/27 02:37:52;;;;;;;5.23;1.80;;;;;;;;;;5093788;28;20563;-68
2022/07/27 02:40:19;;;;;;;5.37;2.27;;;;;;;;;;5093888;28;20620;-68
2022/07/27 02:42:45;;;;;;;2.20;1.60;;;;;;;;;;5095355;28;20219;-68
2022/07/27 02:45:11;;;;;;;2.27;1.67;;;;;;;;;;5094711;28;20203;-68
2022/07/27 02:47:38;;;;;;;4.93;1.87;;;;;;;;;;5095079;28;20173;-68
2022/07/27 02:50:05;;;;;;;3.67;1.50;;;;;;;;;;5095019;28;20218;-68
2022/07/27 02:52:31;;;;;;;4.87;1.90;;;;;;;;;;5093633;28;20649;-68
2022/07/27 02:54:57;;;;;;;8.87;2.07;;;;;;;;;;5094628;28;20212;-68
2022/07/27 02:57:23;;;;;;;3.83;1.93;;;;;;;;;;5094899;28;20216;-68
2022/07/27 02:59:49;;;;;;;6.60;1.70;;;;;;;;;;5094668;28;20236;-68
2022/07/27 03:02:15;;;;;;;4.30;1.83;;;;;;;;;;5094777;28;20170;-68
2022/07/27 03:04:41;;;;;;;11.97;2.30;;;;;;;;;;5094627;28;20291;-68
2022/07/27 03:07:08;;;;;;;4.50;1.83;;;;;;;;;;5094878;28;20181;-68
2022/07/27 03:09:34;;;;;;;4.17;2.53;;;;;;;;;;5093295;28;20300;-68
2022/07/27 03:12:00;;;;;;;7.50;2.10;;;;;;;;;;5094526;28;20177;-68
2022/07/27 03:14:26;;;;;;;4.60;2.27;;;;;;;;;;5094716;28;20669;-70
2022/07/27 03:16:52;;;;;;;3.83;1.90;;;;;;;;;;5094718;28;20241;-68
2022/07/27 03:19:18;;;;;;;3.77;2.10;;;;;;;;;;5094386;28;20205;-67
2022/07/27 03:21:44;;;;;;;7.87;2.60;;;;;;;;;;5093095;28;20192;-68
2022/07/27 03:24:10;;;;;;;2.60;2.40;;;;;;;;;;5094904;28;20215;-68
2022/07/27 03:26:36;;;;;;;5.47;1.90;;;;;;;;;;5094339;28;20771;-68
2022/07/27 03:29:01;;;;;;;3.10;2.00;;;;;;;;;;5094430;28;20194;-68
2022/07/27 03:31:27;;;;;;;4.40;2.07;;;;;;;;;;5094288;28;20183;-68
2022/07/27 03:33:53;;;;;;;4.17;2.00;;;;;;;;;;5092794;28;20192;-68
2022/07/27 03:36:20;;;;;;;6.53;2.20;;;;;;;;;;5093992;28;20593;-68
2022/07/27 03:38:46;;;;;;;4.33;2.17;;;;;;;;;;5094676;28;20203;-67
2022/07/27 03:41:12;;;;;;;4.20;2.23;;;;;;;;;;5094510;28;20536;-68
2022/07/27 03:43:38;;;;;;;4.90;2.60;;;;;;;;;;5094077;28;20603;-67
2022/07/27 03:46:04;;;;;;;5.30;2.33;;;;;;;;;;5092786;28;20208;-69
2022/07/27 03:48:30;;;;;;;5.97;2.90;;;;;;;;;;5094167;28;20209;-68
2022/07/27 03:50:56;;;;;;;6.37;2.80;;;;;;;;;;5093817;28;20200;-68
2022/07/27 03:53:22;;;;;;;4.07;2.60;;;;;;;;;;5092619;28;20652;-68
2022/07/27 03:55:48;;;;;;;7.90;2.20;;;;;;;;;;5091424;28;20213;-68
2022/07/27 03:58:15;;;;;;;6.70;2.30;;;;;;;;;;5092436;28;20205;-68
2022/07/27 04:00:41;;;;;;;10.27;2.87;;;;;;;;;;5092408;28;20192;-68
2022/07/27 04:03:07;;;;;;;4.77;2.57;;;;;;;;;;5093760;28;20629;-68
2022/07/27 04:05:33;;;;;;;4.87;3.07;;;;;;;;;;5093626;28;20200;-68
2022/07/27 04:07:59;;;;;;;5.43;2.30;;;;;;;;;;5093904;28;20203;-68
2022/07/27 04:10:25;;;;;;;5.10;2.40;;;;;;;;;;5092330;28;20215;-68
2022/07/27 04:12:51;;;;;;;4.27;2.17;;;;;;;;;;5093900;28;20636;-68
2022/07/27 04:15:17;;;;;;;3.90;2.20;;;;;;;;;;5092324;28;20209;-67
2022/07/27 04:17:44;;;;;;;5.00;2.53;;;;;;;;;;5093250;28;20649;-68
2022/07/27 04:20:10;;;;;;;3.93;2.50;;;;;;;;;;5093784;28;20192;-68
2022/07/27 04:22:36;;;;;;;6.40;2.80;;;;;;;;;;5093461;28;20256;-68
2022/07/27 04:25:02;;;;;;;4.87;2.77;;;;;;;;;;5093595;28;20200;-68
2022/07/27 04:27:28;;;;;;;3.43;2.57;;;;;;;;;;5093397;28;20637;-68
2022/07/27 04:29:54;;;;;;;;;;;;;;;;;;5092002;28;20238;-68
2022/07/27 04:32:20;;;;;;;;;;;;;;;;;;5092453;28;19911;-68
2022/07/27 04:34:46;;;;;;;;;;;;;;;;;;5093617;28;19957;-69
2022/07/27 04:37:12;;;;;;;;;;;;;;;;;;5093634;28;19904;-68
2022/07/27 04:39:37;;;;;;;;;;;;;;;;;;5092395;28;20358;-67
2022/07/27 04:42:03;;;;;;;;;;;;;;;;;;5093626;28;19904;-68
2022/07/27 04:44:29;;;;;;;;;;;;;;;;;;5092801;28;19904;-68
2022/07/27 04:46:55;;;;;;;;;;;;;;;;;;5092413;28;19995;-67
2022/07/27 04:49:21;;;;;;;;;;;;;;;;;;5092394;28;19911;-68
2022/07/27 04:51:47;;;;;;;;;;;;;;;;;;5092218;28;19915;-68
2022/07/27 04:54:13;;;;;;;;;;;;;;;;;;5093382;28;19908;-68
2022/07/27 04:56:38;;;;;;;;;;;;;;;;;;5093871;28;19943;-68
2022/07/27 04:59:04;;;;;;;;;;;;;;;;;;5093703;28;20411;-68
2022/07/27 05:01:30;;;;;;;;;;;;;;;;;;5092268;28;19904;-66
2022/07/27 05:03:56;;;;;;;;;;;;;;;;;;5093456;28;19973;-68
2022/07/27 05:06:22;;;;;;;;;;;;;;;;;;5093539;28;19904;-68
2022/07/27 05:08:48;;;;;;;;;;;;;;;;;;5096198;28;19904;-68
2022/07/27 05:11:14;;;;;;;;;;;;;;;;;;5097661;28;20431;-69
2022/07/27 05:13:40;;;;;;;;;;;;;;;;;;5096034;28;19911;-68
2022/07/27 05:16:05;;;;;;;;;;;;;;;;;;5097273;28;20299;-68
2022/07/27 05:18:31;;;;;;;;;;;;;;;;;;5097165;28;19915;-68
2022/07/27 05:20:57;;;;;;;8.90;4.43;;;;;;;;;;5097003;28;20520;-68
2022/07/27 05:23:23;;;;;;;12.30;4.43;;;;;;;;;;5095341;28;20173;-68
2022/07/27 05:25:49;;;;;;;7.20;3.70;;;;;;;;;;5096875;28;20272;-68
2022/07/27 05:28:15;;;;;;;9.80;3.77;;;;;;;;;;5097028;28;20177;-68
2022/07/27 05:30:41;;;;;;;8.40;3.30;;;;;;;;;;5096593;28;20635;-68
2022/07/27 05:33:07;;;;;;;6.90;3.50;;;;;;;;;;5096399;28;20255;-69
2022/07/27 05:35:33;;;;;;;5.03;3.17;;;;;;;;;;5095181;28;20232;-68
2022/07/27 05:37:59;;;;;;;5.43;3.10;;;;;;;;;;5095043;28;20178;-68
2022/07/27 05:40:25;;;;;;;5.83;3.30;;;;;;;;;;5096251;28;20268;-68
2022/07/27 05:42:51;;;;;;;4.07;3.40;;;;;;;;;;5096300;28;20165;-69
2022/07/27 05:45:17;;;;;;;7.60;3.73;;;;;;;;;;5094909;28;20737;-68
2022/07/27 05:47:43;;;;;;;12.67;4.30;;;;;;;;;;5096291;28;20173;-68
2022/07/27 05:50:09;;;;;;;6.17;4.20;;;;;;;;;;5096584;28;20663;-68
2022/07/27 05:52:36;;;;;;;7.07;4.90;;;;;;;;;;5094945;28;20535;-67
2022/07/27 05:55:02;;;;;;;6.40;4.80;;;;;;;;;;5095988;28;20618;-70
2022/07/27 05:57:28;;;;;;;7.70;4.60;;;;;;;;;;5096366;28;20172;-68
2022/07/27 05:59:57;;;;;;;7.27;4.37;;;;;;;;;;5096328;28;20683;-68
2022/07/27 06:02:23;;;;;;;8.20;4.17;;;;;;;;;;5094826;28;20264;-68
2022/07/27 06:04:49;;;;;;;7.63;3.97;;;;;;;;;;5095905;28;20383;-68
2022/07/27 06:09:59;;;;;;;5.67;3.27;;;;;;;;;;5096368;28;20215;-68
2022/07/27 06:12:25;;;;;;;3.73;2.87;;;;;;;;;;5095887;28;20222;-68
2022/07/27 06:14:51;;;;;;;5.87;3.43;;;;;;;;;;5096054;28;20197;-68
2022/07/27 06:17:18;;;;;;;3.73;2.87;;;;;;;;;;5096199;28;20685;-68
2022/07/27 06:19:44;;;;;;;5.23;3.23;;;;;;;;;;5094680;28;20205;-68
2022/07/27 06:22:10;;;;;;;4.83;3.23;;;;;;;;;;5094249;28;20303;-68
2022/07/27 06:24:36;;;;;;;3.93;2.80;;;;;;;;;;5094085;28;20212;-69
2022/07/27 06:27:02;;;;;;;7.30;2.57;;;;;;;;;;5096176;28;20169;-68
2022/07/27 06:29:28;;;;;;;2.93;2.00;;;;;;;;;;5095719;28;20185;-68
2022/07/27 06:31:54;;;;;;;7.73;2.40;;;;;;;;;;5095637;28;20208;-69
2022/07/27 06:34:20;;;;;;;5.60;3.07;;;;;;;;;;5094084;28;20569;-68
2022/07/27 06:36:46;;;;;;;5.40;2.43;;;;;;;;;;5094183;28;20250;-68
2022/07/27 06:39:12;;;;;;;2.53;2.27;;;;;;;;;;5095379;28;20200;-69
2022/07/27 06:41:38;;;;;;;4.37;2.73;;;;;;;;;;5095952;28;20215;-69
2022/07/27 06:44:04;;;;;;;5.80;2.10;;;;;;;;;;5094190;28;20227;-68
2022/07/27 06:46:30;;;;;;;7.77;2.57;;;;;;;;;;5095589;28;20255;-69
2022/07/27 06:48:56;;;;;;;3.17;2.37;;;;;;;;;;5095280;28;20216;-68
2022/07/27 06:51:22;;;;;;;2.73;2.27;;;;;;;;;;5095279;28;20202;-68
2022/07/27 06:53:52;;;;;;;8.77;2.43;;;;;;;;;;5094944;28;20260;-68
2022/07/27 06:56:18;;;;;;;4.87;2.43;;;;;;;;;;5094098;28;20551;-68
2022/07/27 06:58:44;;;;;;;5.17;2.27;;;;;;;;;;5094991;28;20197;-68
2022/07/27 07:01:10;;;;;;;3.63;2.17;;;;;;;;;;5095309;28;20709;-69
2022/07/27 07:03:36;;;;;;;9.13;3.03;;;;;;;;;;5101573;22;20304;-68
2022/07/27 07:06:02;;;;;;;5.80;2.47;;;;;;;;;;5074944;28;20192;-68
2022/07/27 07:08:28;;;;;;;10.03;2.63;;;;;;;;;;5075046;28;20634;-68
2022/07/27 07:10:54;;;;;;;3.80;2.53;;;;;;;;;;5074768;28;20174;-68
2022/07/27 07:13:20;;;;;;;3.37;2.37;;;;;;;;;;5074660;28;20198;-68
2022/07/27 07:15:46;;;;;;;4.80;2.13;;;;;;;;;;5074739;28;20656;-68
2022/07/27 07:18:13;;;;;;;6.47;2.30;;;;;;;;;;5073408;28;20197;-68
2022/07/27 07:20:39;;;;;;;4.80;2.10;;;;;;;;;;5074574;28;20173;-68
2022/07/27 07:23:05;;;;;;;7.20;2.10;;;;;;;;;;5074603;28;20193;-68
2022/07/27 07:25:31;;;;;;;4.50;1.87;;;;;;;;;;5074593;28;20192;-68
2022/07/27 07:27:58;;;;;;;4.97;1.93;;;;;;;;;;5073295;28;20547;-68
2022/07/27 07:30:24;;;;;;;7.97;1.80;;;;;;;;;;5073001;28;20178;-68
2022/07/27 07:32:50;;;;;;;5.70;1.80;;;;;;;;;;5074464;28;20638;-68
2022/07/27 07:35:16;;;;;;;2.60;1.67;;;;;;;;;;5073058;28;20174;-68
2022/07/27 07:37:42;;;;;;;4.97;1.90;;;;;;;;;;5073021;28;20737;-68
2022/07/27 07:40:09;;;;;;;3.53;1.70;;;;;;;;;;5074397;28;20208;-68
2022/07/27 07:42:49;;;;;;;5.70;1.40;;;;;;;;;;5072960;28;20273;-68
2022/07/27 07:45:15;;;;;;;2.37;1.47;;;;;;;;;;5074833;28;20184;-68
2022/07/27 07:47:41;;;;;;;3.23;1.40;;;;;;;;;;5073143;28;20188;-68
2022/07/27 07:50:07;;;;;;;2.47;2.03;;;;;;;;;;5073088;28;20185;-68
2022/07/27 07:52:33;;;;;;;2.77;1.30;;;;;;;;;;5074453;28;20182;-68
2022/07/27 07:54:59;;;;;;;3.13;1.33;;;;;;;;;;5075452;28;20712;-68
2022/07/27 07:57:25;;;;;;;4.90;1.57;;;;;;;;;;5076025;28;20181;-68
2022/07/27 07:59:51;;;;;;;4.83;1.50;;;;;;;;;;5074417;28;20201;-68
2022/07/27 08:02:19;;;;;;;3.10;1.33;;;;;;;;;;5076176;28;20170;-68
2022/07/27 08:04:45;;;;;;;7.53;1.80;;;;;;;;;;5074484;28;20220;-68
2022/07/27 08:07:11;;;;;;;2.27;1.10;;;;;;;;;;5074767;28;20641;-68
2022/07/27 08:09:37;;;;;;;3.33;1.17;;;;;;;;;;5074217;28;20193;-69
2022/07/27 08:12:04;;;;;;;2.70;1.40;;;;;;;;;;5075507;28;20181;-69
2022/07/27 08:14:30;;;;;;;3.20;1.20;;;;;;;;;;5073976;28;20205;-69
2022/07/27 08:16:55;;;;;;;2.07;1.40;;;;;;;;;;5074589;28;20189;-69
2022/07/27 08:19:21;;;;;;;3.03;1.40;;;;;;;;;;5074016;28;20204;-68
2022/07/27 08:21:47;;;;;;;3.37;1.20;;;;;;;;;;5073787;28;20256;-69
2022/07/27 08:24:13;;;;;;;2.50;1.13;;;;;;;;;;5074367;28;20193;-69
2022/07/27 08:26:39;;;;;;;4.83;1.10;;;;;;;;;;5072472;28;20213;-69
2022/07/27 08:29:05;;;;;;;1.53;1.03;;;;;;;;;;5073407;28;20181;-69
2022/07/27 08:31:31;;;;;;;2.57;1.23;;;;;;;;;;5073531;28;20182;-69
2022/07/27 08:33:57;;;;;;;4.40;1.20;;;;;;;;;;5073637;28;20231;-69
2022/07/27 08:36:23;;;;;;;2.87;1.70;;;;;;;;;;5072250;28;20185;-69
2022/07/27 08:38:49;;;;;;;5.10;1.60;;;;;;;;;;5073218;28;20205;-68
2022/07/27 08:41:16;;;;;;;7.87;1.50;;;;;;;;;;5071506;28;20268;-68
2022/07/27 08:43:44;;;;;;;3.10;1.50;;;;;;;;;;5073282;28;20186;-69
2022/07/27 08:46:10;;;;;;;2.60;1.30;;;;;;;;;;5073492;28;20166;-69
2022/07/27 08:48:38;;;;;;;2.90;1.47;;;;;;;;;;5071955;28;20192;-66
2022/07/27 08:51:04;;;;;;;2.73;1.37;;;;;;;;;;5073421;28;20544;-69
2022/07/27 08:53:33;;;;;;;3.43;1.70;;;;;;;;;;5071685;28;20200;-69
2022/07/27 08:56:00;;;;;;;1.63;1.50;;;;;;;;;;5071781;28;20273;-67
2022/07/27 08:58:26;;;;;;;4.00;1.57;;;;;;;;;;5071850;28;20201;-69
2022/07/27 09:00:52;;;;;;;7.33;1.80;;;;;;;;;;5071647;28;20268;-68
2022/07/27 09:03:19;;;;;;;14.17;2.73;;;;;;;;;;5072605;28;20636;-68
2022/07/27 09:05:46;;;;;;;2.97;2.00;;;;;;;;;;5072892;28;20590;-68
2022/07/27 09:08:16;;;;;;;6.00;2.03;;;;;;;;;;5071684;28;20189;-68
2022/07/27 09:10:42;;;;;;;1.97;1.67;;;;;;;;;;5071668;28;20181;-68
2022/07/27 09:13:19;;;;;;;2.80;1.60;;;;;;;;;;5072914;28;20201;-68
2022/07/27 09:15:48;;;;;;;5.40;1.50;;;;;;;;;;5073221;28;20523;-69
2022/07/27 09:18:19;;;;;;;4.33;1.53;;;;;;;;;;5071701;28;20681;-69
2022/07/27 09:20:45;;;;;;;2.07;1.40;;;;;;;;;;5071649;28;20638;-67
2022/07/27 09:23:11;;;;;;;3.77;1.47;;;;;;;;;;5071462;28;20202;-69
2022/07/27 09:25:38;;;;;;;3.53;1.67;;;;;;;;;;5073209;28;20166;-68
2022/07/27 09:28:05;;;;;;;1.90;1.47;;;;;;;;;;5073106;28;20166;-68
2022/07/27 09:30:31;;;;;;;3.00;1.30;;;;;;;;;;5073264;28;20176;-68
2022/07/27 09:32:57;;;;;;;2.77;1.50;;;;;;;;;;5072718;28;20221;-69
2022/07/27 09:35:28;;;;;;;2.33;1.30;;;;;;;;;;5071352;28;20208;-69
2022/07/27 09:37:55;;;;;;;4.20;1.40;;;;;;;;;;5072730;28;20181;-69
2022/07/27 09:40:22;;;;;;;1.23;1.10;;;;;;;;;;5072698;28;20253;-69
2022/07/27 09:43:06;;;;;;;5.63;1.60;;;;;;;;;;5072641;28;20202;-68
2022/07/27 09:45:33;;;;;;;2.50;1.10;;;;;;;;;;5072939;28;20174;-68
2022/07/27 09:48:09;;;;;;;1.20;1.10;;;;;;;;;;5071205;28;20189;-68
2022/07/27 09:50:37;;;;;;;2.23;1.33;;;;;;;;;;5073440;28;20176;-68
2022/07/27 09:53:12;;;;;;;3.10;1.47;;;;;;;;;;5074046;28;20211;-68
2022/07/27 09:55:38;;;;;;;4.07;1.83;;;;;;;;;;5077300;28;20181;-69
2022/07/27 09:58:04;;;;;;;2.70;1.33;;;;;;;;;;5076320;28;20264;-69
2022/07/27 10:00:30;;;;;;;2.10;1.40;;;;;;;;;;5077487;28;20206;-69
2022/07/27 10:02:56;;;;;;;3.70;1.80;;;;;;;;;;5075910;28;20189;-68
2022/07/27 10:05:22;;;;;;;3.30;1.20;;;;;;;;;;5075969;28;20170;-69
2022/07/27 10:07:49;;;;;;;4.10;1.43;;;;;;;;;;5076673;28;20253;-68
2022/07/27 10:10:15;;;;;;;4.23;1.37;;;;;;;;;;5074590;28;20196;-69
2022/07/27 10:12:44;;;;;;;2.23;1.40;;;;;;;;;;5074381;28;20186;-69
2022/07/27 10:15:11;;;;;;;1.40;1.10;;;;;;;;;;5075804;28;20725;-68
2022/07/27 10:17:38;;;;;;;4.10;1.40;;;;;;;;;;5076035;28;20186;-69
2022/07/27 10:20:08;;;;;;;5.70;1.10;;;;;;;;;;5074523;28;20213;-68
2022/07/27 10:22:52;;;;;;;1.33;1.17;;;;;;;;;;5076150;28;20181;-68
2022/07/27 10:25:19;;;;;;;1.93;1.30;;;;;;;;;;5075710;28;20253;-68
2022/07/27 10:28:06;;;;;;;1.77;1.10;;;;;;;;;;5075997;28;20228;-68
2022/07/27 10:30:32;;;;;;;1.90;1.20;;;;;;;;;;5076453;28;20595;-67
2022/07/27 10:32:58;;;;;;;1.40;1.20;;;;;;;;;;5075786;28;20237;-67
2022/07/27 10:35:34;;;;;;;1.47;1.30;;;;;;;;;;5074677;28;20178;-68
2022/07/27 10:38:07;;;;;;;1.83;1.10;;;;;;;;;;5074141;28;20234;-68
2022/07/27 10:40:33;;;;;;;1.33;1.10;;;;;;;;;;5075327;28;20177;-68
2022/07/27 10:43:06;;;;;;;1.10;1.00;;;;;;;;;;5075252;28;20280;-68
2022/07/27 10:45:53;;;;;;;1.40;1.30;;;;;;;;;;5075241;28;20174;-68
2022/07/27 10:48:36;;;;;;;1.63;1.00;;;;;;;;;;5075634;28;20170;-68
2022/07/27 10:51:02;;;;;;;3.10;1.00;;;;;;;;;;5075397;28;20680;-67
2022/07/27 10:53:32;;;;;;;0.90;0.90;;;;;;;;;;5075291;28;20190;-67
2022/07/27 10:55:58;;;;;;;1.40;1.17;;;;;;;;;;5075135;28;20178;-68
2022/07/27 10:58:27;;;;;;;1.63;1.20;;;;;;;;;;5075084;28;20289;-68
2022/07/27 11:00:53;;;;;;;2.33;0.97;;;;;;;;;;5074993;28;20170;-67
2022/07/27 11:03:26;;;;;;;1.43;0.90;;;;;;;;;;5073664;28;20260;-68
2022/07/27 11:06:06;;;;;;;4.47;1.10;;;;;;;;;;5074370;28;20548;-67
2022/07/27 11:08:34;;;;;;;2.53;1.23;;;;;;;;;;5075113;28;20243;-68
2022/07/27 11:11:00;;;;;;;1.90;1.30;;;;;;;;;;5075004;28;20174;-68
2022/07/27 11:13:27;;;;;;;1.63;1.20;;;;;;;;;;5075441;28;20276;-68
2022/07/27 11:15:56;;;;;;;1.73;1.00;;;;;;;;;;5074648;28;20197;-68
2022/07/27 11:18:26;;;;;;;1.63;1.30;;;;;;;;;;5074870;28;20625;-68
2022/07/27 11:20:52;;;;;;;1.60;1.17;;;;;;;;;;5073856;28;20185;-68
2022/07/27 11:23:19;;;;;;;2.77;1.27;;;;;;;;;;5074118;28;20202;-67
2022/07/27 11:25:57;;;;;;;12.90;2.77;;;;;;;;;;5073188;28;20193;-67
2022/07/27 11:28:31;;;;;;;3.93;2.47;;;;;;;;;;5073003;28;20319;-67
2022/07/27 11:30:57;;;;;;;1.87;1.10;;;;;;;;;;5074463;28;20184;-68
2022/07/27 11:33:23;;;;;;;1.00;1.00;;;;;;;;;;5074508;28;20564;-67
2022/07/27 11:35:56;;;;;;;0.87;0.87;;;;;;;;;;5074643;28;20641;-68
2022/07/27 11:38:22;;;;;;;1.40;1.10;;;;;;;;;;5074243;28;20205;-67
2022/07/27 11:40:50;;;;;;;1.50;1.10;;;;;;;;;;5074438;28;20515;-68
2022/07/27 11:43:31;;;;;;;1.33;1.00;;;;;;;;;;5074047;28;20284;-67
2022/07/27 11:45:57;;;;;;;2.83;1.17;;;;;;;;;;5073945;28;20182;-68
2022/07/27 11:48:23;;;;;;;1.77;1.03;;;;;;;;;;5074060;28;20177;-68
2022/07/27 11:50:58;;;;;;;1.27;1.17;;;;;;;;;;5072673;28;20182;-68
2022/07/27 11:53:24;;;;;;;1.37;1.00;;;;;;;;;;5072752;28;20692;-68
2022/07/27 11:55:50;;;;;;;2.03;1.10;;;;;;;;;;5074155;28;20198;-68
2022/07/27 11:58:17;;;;;;;1.00;1.00;;;;;;;;;;5074074;28;20272;-67
2022/07/27 12:00:46;;;;;;;1.70;1.20;;;;;;;;;;5073805;28;20177;-68
2022/07/27 12:03:19;;;;;;;2.73;1.00;;;;;;;;;;5073841;28;20267;-68
2022/07/27 12:05:48;;;;;;;1.00;1.00;;;;;;;;;;5073808;28;20158;-68
2022/07/27 12:08:15;;;;;;;1.60;1.23;;;;;;;;;;5074279;28;20197;-68
2022/07/27 12:10:55;;;;;;;2.23;1.20;;;;;;;;;;5073740;28;20631;-68
2022/07/27 12:13:21;;;;;;;1.47;1.00;;;;;;;;;;5074013;28;20201;-67
2022/07/27 12:15:56;;;;;;;1.27;1.10;;;;;;;;;;5071921;28;20227;-68
2022/07/27 12:18:22;;;;;;;2.47;1.17;;;;;;;;;;5072021;28;20566;-67
2022/07/27 12:20:49;;;;;;;5.13;1.60;;;;;;;;;;5072181;28;20178;-67
2022/07/27 12:23:14;;;;;;;1.27;1.13;;;;;;;;;;5072118;28;20250;-68
2022/07/27 12:25:40;;;;;;;0.90;0.90;;;;;;;;;;5073426;28;20261;-68
2022/07/27 12:28:08;;;;;;;5.17;1.23;;;;;;;;;;5072386;28;20174;-68
2022/07/27 12:30:36;;;;;;;1.50;1.20;;;;;;;;;;5073581;28;20179;-67
2022/07/27 12:33:04;;;;;;;2.40;1.20;;;;;;;;;;5073584;28;20190;-68
2022/07/27 12:35:32;;;;;;;1.30;1.10;;;;;;;;;;5073259;28;20173;-68
2022/07/27 12:37:59;;;;;;;2.77;1.53;;;;;;;;;;5073330;28;20170;-68
2022/07/27 12:40:26;;;;;;;2.07;1.37;;;;;;;;;;5073469;28;20186;-67
2022/07/27 12:43:03;;;;;;;3.77;2.10;;;;;;;;;;5071914;28;20178;-68
2022/07/27 12:45:33;;;;;;;2.00;1.40;;;;;;;;;;5071811;28;20166;-68
2022/07/27 12:48:13;;;;;;;2.97;1.87;;;;;;;;;;5073299;28;20522;-67
2022/07/27 12:50:40;;;;;;;1.87;1.27;;;;;;;;;;5073329;28;20185;-68
2022/07/27 12:53:06;;;;;;;2.97;1.17;;;;;;;;;;5073229;28;20247;-67
2022/07/27 12:55:32;;;;;;;4.23;1.50;;;;;;;;;;5071820;28;20638;-68
2022/07/27 12:57:58;;;;;;;1.87;1.37;;;;;;;;;;5072931;28;20595;-68
2022/07/27 13:00:28;;;;;;;2.20;1.57;;;;;;;;;;5071721;28;20248;-68
2022/07/27 13:02:54;;;;;;;2.97;1.20;;;;;;;;;;5073045;28;20178;-68
2022/07/27 13:05:20;;;;;;;1.97;1.33;;;;;;;;;;5071752;28;20559;-68
2022/07/27 13:07:46;;;;;;;2.47;1.40;;;;;;;;;;5071692;28;20223;-68
2022/07/27 13:10:13;;;;;;;1.33;1.20;;;;;;;;;;5072065;28;20182;-67
2022/07/27 13:12:39;;;;;;;4.23;1.20;;;;;;;;;;5072999;28;20264;-67
2022/07/27 13:15:06;;;;;;;1.70;1.50;;;;;;;;;;5072956;28;20775;-68
2022/07/27 13:17:32;;;;;;;2.70;1.30;;;;;;;;;;5071646;28;20186;-68
2022/07/27 13:19:58;;;;;;;4.10;1.60;;;;;;;;;;5071567;28;20202;-68
2022/07/27 13:22:23;;;;;;;2.03;1.50;;;;;;;;;;5072867;28;20185;-68
2022/07/27 13:24:49;;;;;;;1.90;1.20;;;;;;;;;;5072902;28;20247;-68
2022/07/27 13:27:15;;;;;;;5.40;1.53;;;;;;;;;;5073974;28;20227;-68
2022/07/27 13:29:41;;;;;;;5.80;2.10;;;;;;;;;;5076607;28;20185;-68
2022/07/27 13:32:07;;;;;;;5.97;1.50;;;;;;;;;;5075492;28;20530;-68
2022/07/27 13:34:33;;;;;;;3.33;1.27;;;;;;;;;;5075605;28;20198;-69
2022/07/27 13:36:59;;;;;;;2.10;1.47;;;;;;;;;;5076682;28;20182;-68
2022/07/27 13:39:25;;;;;;;2.30;1.20;;;;;;;;;;5076902;28;20677;-68
2022/07/27 13:41:52;;;;;;;1.40;1.30;;;;;;;;;;5075231;28;20205;-69
2022/07/27 13:44:21;;;;;;;1.57;1.20;;;;;;;;;;5076408;28;20547;-68
2022/07/27 13:46:47;;;;;;;2.27;1.40;;;;;;;;;;5076576;28;20184;-68
2022/07/27 13:49:15;;;;;;;1.73;1.50;;;;;;;;;;5076474;28;20177;-69
2022/07/27 13:51:41;;;;;;;2.17;1.20;;;;;;;;;;5077060;28;20241;-68
2022/07/27 13:54:07;;;;;;;2.20;1.67;;;;;;;;;;5076386;28;20620;-68
2022/07/27 13:56:33;;;;;;;1.80;1.47;;;;;;;;;;5076190;28;20568;-68
2022/07/27 13:59:00;;;;;;;2.80;1.53;;;;;;;;;;5076187;28;20247;-70
2022/07/27 14:01:26;;;;;;;1.33;1.20;;;;;;;;;;5076676;28;20182;-70
2022/07/27 14:03:52;;;;;;;1.37;1.10;;;;;;;;;;5074694;28;20256;-69
2022/07/27 14:06:19;;;;;;;1.63;1.33;;;;;;;;;;5076138;28;20185;-68
2022/07/27 14:08:45;;;;;;;4.70;1.73;;;;;;;;;;5074760;28;20177;-68
2022/07/27 14:11:11;;;;;;;2.50;1.27;;;;;;;;;;5075897;28;20178;-68
2022/07/27 14:13:37;;;;;;;4.03;1.60;;;;;;;;;;5075715;28;20201;-68
2022/07/27 14:16:05;;;;;;;2.93;1.37;;;;;;;;;;5076029;28;20215;-68
2022/07/27 14:18:31;;;;;;;1.60;1.30;;;;;;;;;;5075854;28;20669;-68
2022/07/27 14:21:00;;;;;;;3.07;1.40;;;;;;;;;;5075885;28;20170;-68
2022/07/27 14:23:27;;;;;;;2.93;1.37;;;;;;;;;;5074379;28;20281;-69
2022/07/27 14:25:54;;;;;;;2.23;1.27;;;;;;;;;;5074557;28;20189;-68
2022/07/27 14:28:20;;;;;;;1.80;1.30;;;;;;;;;;5074312;28;20178;-68
2022/07/27 14:30:47;;;;;;;4.33;1.50;;;;;;;;;;5074486;28;20235;-68
2022/07/27 14:33:13;;;;;;;1.70;1.27;;;;;;;;;;5075869;28;20220;-68
2022/07/27 14:35:39;;;;;;;2.30;1.57;;;;;;;;;;5075598;28;20174;-68
2022/07/27 14:38:05;;;;;;;2.37;1.23;;;;;;;;;;5075495;28;20197;-68
2022/07/27 14:40:31;;;;;;;1.37;1.17;;;;;;;;;;5074552;28;20240;-68
2022/07/27 14:42:56;;;;;;;4.03;1.33;;;;;;;;;;5075245;28;20182;-68
2022/07/27 14:45:22;;;;;;;2.70;1.40;;;;;;;;;;5075473;28;20201;-68
2022/07/27 14:47:49;;;;;;;3.13;1.33;;;;;;;;;;5075266;28;20181;-68
2022/07/27 14:50:15;;;;;;;1.70;1.60;;;;;;;;;;5074151;28;20189;-68
2022/07/27 14:52:41;;;;;;;2.70;1.40;;;;;;;;;;5075388;28;20174;-66
2022/07/27 14:55:07;;;;;;;4.73;1.77;;;;;;;;;;5075335;28;20177;-68